createdAt,value
2019-05-20T08:39:13.226Z,31.37
2019-05-20T08:41:46.536Z,27.13
2019-05-20T08:44:19.060Z,28.55
2019-05-20T08:46:51.796Z,27.45
2019-05-20T08:49:24.466Z,24.23
2019-05-20T08:51:57.216Z,27.17
2019-05-20T08:54:30.051Z,29.60
2019-05-20T08:57:03.116Z,26.25
2019-05-20T08:59:35.757Z,22.98
2019-05-20T09:02:08.536Z,25.72
2019-05-20T09:04:41.045Z,28.27
2019-05-20T09:07:14.019Z,28.15
2019-05-20T09:09:46.892Z,27.60
2019-05-20T09:12:19.631Z,26.80
2019-05-20T09:14:52.391Z,27.37
2019-05-20T09:17:25.233Z,23.65
2019-05-20T09:19:57.639Z,28.85
2019-05-20T09:22:30.517Z,27.07
2019-05-20T09:25:03.530Z,27.75
2019-05-20T09:27:38.091Z,28.67
2019-05-20T09:30:13.622Z,29.85
2019-05-20T09:32:47.054Z,30.27
2019-05-20T09:35:19.885Z,26.15
2019-05-20T09:37:52.560Z,28.05
2019-05-20T09:40:39.683Z,31.70
2019-05-20T09:43:12.428Z,27.70
2019-05-20T09:45:44.991Z,30.35
2019-05-20T09:48:17.675Z,42.95
2019-05-20T09:50:50.586Z,28.90
2019-05-20T09:53:24.061Z,30.85
2019-05-20T09:55:57.004Z,33.92
2019-05-20T09:58:29.826Z,30.35
2019-05-20T10:01:02.626Z,35.15
2019-05-20T10:03:35.405Z,30.52
2019-05-20T10:06:08.217Z,26.75
2019-05-20T10:08:44.781Z,28.83
2019-05-20T10:11:15.418Z,33.18
2019-05-20T10:13:48.121Z,31.02
2019-05-20T10:16:20.761Z,32.33
2019-05-20T10:18:55.426Z,33.10
2019-05-20T10:21:28.145Z,29.32
2019-05-20T10:24:00.725Z,30.72
2019-05-20T10:26:33.515Z,39.90
2019-05-20T10:29:06.250Z,28.15
2019-05-20T10:31:39.094Z,28.67
2019-05-20T10:34:11.762Z,32.42
2019-05-20T10:36:44.461Z,31.12
2019-05-20T10:39:17.735Z,31.93
2019-05-20T10:41:50.337Z,32.55
2019-05-20T10:44:23.392Z,31.95
2019-05-20T10:46:56.171Z,31.17
2019-05-20T10:49:29.262Z,34.65
2019-05-20T10:52:02.238Z,32.70
2019-05-20T10:54:34.932Z,32.30
2019-05-20T10:57:07.831Z,28.85
2019-05-20T10:59:40.522Z,29.75
2019-05-20T11:02:13.646Z,34.23
2019-05-20T11:04:46.221Z,31.55
2019-05-20T11:07:19.165Z,36.53
2019-05-20T11:09:51.933Z,35.52
2019-05-20T11:12:24.906Z,28.98
2019-05-20T11:14:58.960Z,30.88
2019-05-20T11:17:31.735Z,33.60
2019-05-20T11:20:06.326Z,31.45
2019-05-20T11:22:39.442Z,26.97
2019-05-20T11:25:12.517Z,30.62
2019-05-20T11:27:45.057Z,35.85
2019-05-20T11:30:19.001Z,26.57
2019-05-20T11:32:52.100Z,27.70
2019-05-20T11:35:24.900Z,25.23
2019-05-20T11:37:57.626Z,34.67
2019-05-20T11:40:30.321Z,28.83
2019-05-20T11:43:02.988Z,25.45
2019-05-20T11:45:35.576Z,23.65
2019-05-20T11:48:09.707Z,31.65
2019-05-20T11:50:42.690Z,23.75
2019-05-20T11:53:15.357Z,27.00
2019-05-20T11:55:48.058Z,24.40
2019-05-20T11:58:21.121Z,25.25
2019-05-20T12:00:54.775Z,25.35
2019-05-20T12:03:27.716Z,30.92
2019-05-20T12:06:01.474Z,21.02
2019-05-20T12:08:34.201Z,25.82
2019-05-20T12:11:07.033Z,24.82
2019-05-20T12:13:39.832Z,23.87
2019-05-20T12:16:12.546Z,20.60
2019-05-20T12:18:45.500Z,21.80
2019-05-20T12:21:18.226Z,28.85
2019-05-20T12:23:51.090Z,25.65
2019-05-20T12:26:24.018Z,26.27
2019-05-20T12:28:56.566Z,27.95
2019-05-20T12:31:29.050Z,30.27
2019-05-20T12:34:02.501Z,22.32
2019-05-20T12:36:35.239Z,27.62
2019-05-20T12:39:08.555Z,25.57
2019-05-20T12:41:41.366Z,26.25
2019-05-20T12:44:13.725Z,26.02
2019-05-20T12:46:46.180Z,21.75
2019-05-20T12:49:18.855Z,25.32
2019-05-20T12:51:51.572Z,21.23
2019-05-20T12:54:24.421Z,23.52
2019-05-20T12:56:57.049Z,24.27
2019-05-20T12:59:29.794Z,23.45
2019-05-20T13:02:03.537Z,21.87
2019-05-20T13:04:36.334Z,21.40
2019-05-20T13:07:08.980Z,22.60
2019-05-20T13:09:41.848Z,34.40
2019-05-20T13:12:14.781Z,21.27
2019-05-20T13:14:47.305Z,21.90
2019-05-20T13:17:19.803Z,18.37
2019-05-20T13:19:53.221Z,24.30
2019-05-20T13:22:25.875Z,32.75
2019-05-20T13:24:58.373Z,21.48
2019-05-20T13:27:31.130Z,18.40
2019-05-20T13:30:06.490Z,19.30
2019-05-20T13:32:39.105Z,18.30
2019-05-20T13:35:12.540Z,23.25
2019-05-20T13:37:45.405Z,19.80
2019-05-20T13:40:18.449Z,18.27
2019-05-20T13:42:51.007Z,19.77
2019-05-20T13:45:23.712Z,64.75
2019-05-20T13:47:56.573Z,23.92
2019-05-20T13:50:29.046Z,20.92
2019-05-20T13:53:01.792Z,21.07
2019-05-20T13:55:34.446Z,20.70
2019-05-20T13:58:07.296Z,21.17
2019-05-20T14:00:40.137Z,16.77
2019-05-20T14:03:13.645Z,18.57
2019-05-20T14:05:46.660Z,20.35
2019-05-20T14:08:20.837Z,18.52
2019-05-20T14:11:03.700Z,15.58
2019-05-20T14:13:28.006Z,16.87
2019-05-20T14:16:00.797Z,20.37
2019-05-20T14:18:33.585Z,19.27
2019-05-20T14:21:06.941Z,14.30
2019-05-20T14:23:39.831Z,14.90
2019-05-20T14:26:12.845Z,19.23
2019-05-20T14:28:45.460Z,12.88
2019-05-20T14:31:18.136Z,16.23
2019-05-20T14:33:50.615Z,18.27
2019-05-20T14:36:38.462Z,11.35
2019-05-20T14:38:57.737Z,12.65
2019-05-20T14:41:30.407Z,24.52
2019-05-20T14:44:03.402Z,13.30
2019-05-20T14:46:36.081Z,17.15
2019-05-20T14:49:08.560Z,12.85
2019-05-20T14:51:41.120Z,15.13
2019-05-20T14:54:25.330Z,8.25
2019-05-20T14:56:58.510Z,16.80
2019-05-20T14:59:31.265Z,12.98
2019-05-20T15:02:03.819Z,12.28
2019-05-20T15:04:36.256Z,7.95
2019-05-20T15:07:08.921Z,9.75
2019-05-20T15:09:41.477Z,9.05
2019-05-20T15:12:14.035Z,9.25
2019-05-20T15:14:46.408Z,10.45
2019-05-20T15:17:18.870Z,6.58
2019-05-20T15:19:51.420Z,6.67
2019-05-20T15:22:23.935Z,8.40
2019-05-20T15:24:59.642Z,5.62
2019-05-20T15:27:32.345Z,7.92
2019-05-20T15:30:09.816Z,9.48
2019-05-20T15:32:42.445Z,7.67
2019-05-20T15:35:15.070Z,5.62
2019-05-20T15:37:47.573Z,5.70
2019-05-20T15:40:24.162Z,7.15
2019-05-20T15:42:55.291Z,9.25
2019-05-20T15:45:27.844Z,6.70
2019-05-20T15:48:00.559Z,6.33
2019-05-20T15:50:33.038Z,5.85
2019-05-20T15:53:10.780Z,6.30
2019-05-20T15:55:39.930Z,5.95
2019-05-20T15:58:12.351Z,3.40
2019-05-20T16:00:44.839Z,3.20
2019-05-20T16:03:17.606Z,6.08
2019-05-20T16:05:50.123Z,5.33
2019-05-20T16:08:22.912Z,2.75
2019-05-20T16:10:55.486Z,9.58
2019-05-20T16:13:28.266Z,4.40
2019-05-20T16:16:00.851Z,6.35
2019-05-20T16:18:34.927Z,2.40
2019-05-20T16:21:07.826Z,4.42
2019-05-20T16:23:40.537Z,2.10
2019-05-20T16:26:13.105Z,10.48
2019-05-20T16:28:45.711Z,4.20
2019-05-20T16:31:18.976Z,10.78
2019-05-20T16:33:51.926Z,3.92
2019-05-20T16:36:24.591Z,1.52
2019-05-20T16:38:57.351Z,6.03
2019-05-20T16:41:29.985Z,1.70
2019-05-20T16:44:02.965Z,7.58
2019-05-20T16:46:35.460Z,9.65
2019-05-20T16:49:08.313Z,5.12
2019-05-20T16:51:41.030Z,7.22
2019-05-20T16:54:14.776Z,8.60
2019-05-20T16:56:47.472Z,5.47
2019-05-20T16:59:20.355Z,3.98
2019-05-20T17:01:53.305Z,5.58
2019-05-20T17:04:26.170Z,3.92
2019-05-20T17:06:58.825Z,5.05
2019-05-20T17:09:31.450Z,4.37
2019-05-20T17:12:04.021Z,8.43
2019-05-20T17:14:36.851Z,2.67
2019-05-20T17:17:09.573Z,3.00
2019-05-20T17:19:42.007Z,6.92
2019-05-20T17:22:14.609Z,2.25
2019-05-20T17:24:47.293Z,2.40
2019-05-20T17:27:19.995Z,1.95
2019-05-20T17:29:52.557Z,2.37
2019-05-20T17:32:25.344Z,2.83
2019-05-20T17:34:57.906Z,5.67
2019-05-20T17:37:30.711Z,10.32
2019-05-20T17:40:04.331Z,4.08
2019-05-20T17:42:37.285Z,5.40
2019-05-20T17:45:12.879Z,3.62
2019-05-20T17:47:45.923Z,10.68
2019-05-20T17:50:19.107Z,2.75
2019-05-20T17:52:52.785Z,4.22
2019-05-20T17:55:25.739Z,3.47
2019-05-20T17:57:58.987Z,10.98
2019-05-20T18:00:31.670Z,4.10
2019-05-20T18:03:04.272Z,5.03
2019-05-20T18:05:36.820Z,7.15
2019-05-20T18:08:09.565Z,7.87
2019-05-20T18:10:42.251Z,5.17
2019-05-20T18:13:15.120Z,11.22
2019-05-20T18:15:48.738Z,4.87
2019-05-20T18:18:21.360Z,2.72
2019-05-20T18:20:56.497Z,3.37
2019-05-20T18:23:28.691Z,8.30
2019-05-20T18:26:03.617Z,3.92
2019-05-20T18:28:36.125Z,6.05
2019-05-20T18:31:11.865Z,4.97
2019-05-20T18:33:45.013Z,3.72
2019-05-20T18:36:18.186Z,10.68
2019-05-20T18:38:50.720Z,5.37
2019-05-20T18:41:23.488Z,5.67
2019-05-20T18:43:56.165Z,9.15
2019-05-20T18:46:28.983Z,9.88
2019-05-20T18:49:01.676Z,9.43
2019-05-20T18:51:34.716Z,8.40
2019-05-20T18:54:08.021Z,7.35
2019-05-20T18:56:40.772Z,9.03
2019-05-20T18:59:13.695Z,9.48
2019-05-20T19:02:02.348Z,6.95
2019-05-20T19:04:20.835Z,5.60
2019-05-20T19:06:53.751Z,6.50
2019-05-20T19:09:26.611Z,11.08
2019-05-20T19:11:59.635Z,5.67
2019-05-20T19:14:32.161Z,7.67
2019-05-20T19:17:05.143Z,9.15
2019-05-20T19:19:37.735Z,3.80
2019-05-20T19:22:10.703Z,12.90
2019-05-20T19:24:43.412Z,13.40
2019-05-20T19:27:16.219Z,14.85
2019-05-20T19:29:48.925Z,16.50
2019-05-20T19:32:23.585Z,14.38
2019-05-20T19:34:56.155Z,8.70
2019-05-20T19:37:29.238Z,15.72
2019-05-20T19:40:02.690Z,13.35
2019-05-20T19:42:36.276Z,16.07
2019-05-20T19:45:09.531Z,14.35
2019-05-20T19:47:42.456Z,14.98
2019-05-20T19:50:16.285Z,22.95
2019-05-20T19:52:49.117Z,19.25
2019-05-20T19:55:22.091Z,18.17
2019-05-20T19:57:54.476Z,20.25
2019-05-20T20:00:27.424Z,22.60
2019-05-20T20:03:00.038Z,21.80
2019-05-20T20:05:33.015Z,32.17
2019-05-20T20:08:06.238Z,21.93
2019-05-20T20:10:38.860Z,35.03
2019-05-20T20:13:12.784Z,23.87
2019-05-20T20:15:45.492Z,30.87
2019-05-20T20:18:18.532Z,28.40
2019-05-20T20:20:51.250Z,18.57
2019-05-20T20:23:24.080Z,25.03
2019-05-20T20:25:57.092Z,22.00
2019-05-20T20:28:29.795Z,26.27
2019-05-20T20:31:02.480Z,20.53
2019-05-20T20:33:35.470Z,24.77
2019-05-20T20:36:09.407Z,27.07
2019-05-20T20:38:42.262Z,27.83
2019-05-20T20:41:15.825Z,22.90
2019-05-20T20:43:48.485Z,20.07
2019-05-20T20:46:21.196Z,22.20
2019-05-20T20:48:53.815Z,24.83
2019-05-20T20:51:26.545Z,25.13
2019-05-20T20:53:59.430Z,23.07
2019-05-20T20:56:34.181Z,23.73
2019-05-20T20:59:06.856Z,26.80
2019-05-20T21:01:39.565Z,28.77
2019-05-20T21:04:13.778Z,25.33
2019-05-20T21:06:46.490Z,22.97
2019-05-20T21:09:19.194Z,33.97
2019-05-20T21:11:52.101Z,22.57
2019-05-20T21:14:24.730Z,29.93
2019-05-20T21:16:58.290Z,29.90
2019-05-20T21:19:31.167Z,25.20
2019-05-20T21:22:03.916Z,21.87
2019-05-20T21:24:36.771Z,23.37
2019-05-20T21:27:10.661Z,24.73
2019-05-20T21:29:43.296Z,26.70
2019-05-20T21:32:15.880Z,23.93
2019-05-20T21:34:48.498Z,26.33
2019-05-20T21:37:21.151Z,24.57
2019-05-20T21:39:53.736Z,26.67
2019-05-20T21:42:26.510Z,24.20
2019-05-20T21:44:59.520Z,28.90
2019-05-20T21:47:32.470Z,23.73
2019-05-20T21:50:06.142Z,21.50
2019-05-20T21:52:39.780Z,23.37
2019-05-20T21:55:12.679Z,21.37
2019-05-20T21:57:45.389Z,23.77
2019-05-20T22:00:25.495Z,26.30
2019-05-20T22:02:58.966Z,20.23
2019-05-20T22:05:31.650Z,18.00
2019-05-20T22:08:04.359Z,19.23
2019-05-20T22:10:37.993Z,23.57
2019-05-20T22:13:10.610Z,16.33
2019-05-20T22:15:43.027Z,19.80
2019-05-20T22:18:15.737Z,16.40
2019-05-20T22:20:48.285Z,18.73
2019-05-20T22:23:37.852Z,15.40
2019-05-20T22:26:10.715Z,17.30
2019-05-20T22:28:43.611Z,17.53
2019-05-20T22:31:16.171Z,15.33
2019-05-20T22:33:48.685Z,16.00
2019-05-20T22:36:21.652Z,16.90
2019-05-20T22:38:54.605Z,17.77
2019-05-20T22:41:27.231Z,22.80
2019-05-20T22:44:00.910Z,17.23
2019-05-20T22:46:33.565Z,17.93
2019-05-20T22:49:06.265Z,15.67
2019-05-20T22:51:38.965Z,20.63
2019-05-20T22:54:11.727Z,17.80
2019-05-20T22:56:44.449Z,14.13
2019-05-20T22:59:16.999Z,15.97
2019-05-20T23:01:49.576Z,15.67
2019-05-20T23:04:22.330Z,16.50
2019-05-20T23:06:55.025Z,18.00
2019-05-20T23:09:27.650Z,15.53
2019-05-20T23:12:00.419Z,24.07
2019-05-20T23:14:33.190Z,14.23
2019-05-20T23:17:05.957Z,19.13
2019-05-20T23:19:38.810Z,18.23
2019-05-20T23:22:11.727Z,16.53
2019-05-20T23:24:44.804Z,19.80
2019-05-20T23:27:17.293Z,17.43
2019-05-20T23:29:49.850Z,19.73
2019-05-20T23:32:22.886Z,14.90
2019-05-20T23:34:55.833Z,17.43
2019-05-20T23:37:28.615Z,18.30
2019-05-20T23:40:01.295Z,16.17
2019-05-20T23:42:33.840Z,13.43
2019-05-20T23:45:09.915Z,21.37
2019-05-20T23:47:42.509Z,16.30
2019-05-20T23:50:15.810Z,16.47
2019-05-20T23:52:48.470Z,16.53
2019-05-20T23:55:21.120Z,13.70
2019-05-20T23:57:53.710Z,15.60
